sensor_id;sensor_type;location;lat;lon;timestamp;P1;durP1;ratioP1;P2;durP2;ratioP2
75386;SDS011;63966;47.914;22.266;2023-05-07T00:01:48;7.07;;;4.22;;
75386;SDS011;63966;47.914;22.266;2023-05-07T00:04:51;8.32;;;4.32;;
75386;SDS011;63966;47.914;22.266;2023-05-07T00:07:55;6.57;;;4.20;;
75386;SDS011;63966;47.914;22.266;2023-05-07T00:11:00;7.60;;;4.53;;
75386;SDS011;63966;47.914;22.266;2023-05-07T00:14:04;8.10;;;4.70;;
75386;SDS011;63966;47.914;22.266;2023-05-07T00:17:08;8.70;;;5.38;;
75386;SDS011;63966;47.914;22.266;2023-05-07T00:20:11;8.88;;;5.10;;
75386;SDS011;63966;47.914;22.266;2023-05-07T00:23:15;9.20;;;5.00;;
75386;SDS011;63966;47.914;22.266;2023-05-07T00:26:19;8.32;;;5.60;;
75386;SDS011;63966;47.914;22.266;2023-05-07T00:29:24;8.17;;;5.20;;
75386;SDS011;63966;47.914;22.266;2023-05-07T00:32:28;9.57;;;5.63;;
75386;SDS011;63966;47.914;22.266;2023-05-07T00:35:31;9.50;;;5.20;;
75386;SDS011;63966;47.914;22.266;2023-05-07T00:38:35;8.73;;;5.45;;
75386;SDS011;63966;47.914;22.266;2023-05-07T00:41:38;8.18;;;4.93;;
75386;SDS011;63966;47.914;22.266;2023-05-07T00:44:42;8.53;;;5.10;;
75386;SDS011;63966;47.914;22.266;2023-05-07T00:47:45;9.40;;;5.55;;
75386;SDS011;63966;47.914;22.266;2023-05-07T00:50:49;7.55;;;4.93;;
75386;SDS011;63966;47.914;22.266;2023-05-07T00:53:53;8.75;;;5.50;;
75386;SDS011;63966;47.914;22.266;2023-05-07T00:56:56;8.65;;;5.60;;
75386;SDS011;63966;47.914;22.266;2023-05-07T01:00:00;8.20;;;5.17;;
75386;SDS011;63966;47.914;22.266;2023-05-07T01:03:05;9.90;;;5.80;;
75386;SDS011;63966;47.914;22.266;2023-05-07T01:06:10;8.82;;;5.45;;
75386;SDS011;63966;47.914;22.266;2023-05-07T01:09:15;8.52;;;5.63;;
75386;SDS011;63966;47.914;22.266;2023-05-07T01:12:20;11.23;;;5.93;;
75386;SDS011;63966;47.914;22.266;2023-05-07T01:15:24;9.27;;;5.53;;
75386;SDS011;63966;47.914;22.266;2023-05-07T01:18:28;9.10;;;5.35;;
75386;SDS011;63966;47.914;22.266;2023-05-07T01:21:35;9.10;;;6.03;;
75386;SDS011;63966;47.914;22.266;2023-05-07T01:24:42;9.05;;;6.13;;
75386;SDS011;63966;47.914;22.266;2023-05-07T01:27:47;9.15;;;6.35;;
75386;SDS011;63966;47.914;22.266;2023-05-07T01:30:52;9.17;;;5.80;;
75386;SDS011;63966;47.914;22.266;2023-05-07T01:33:59;9.38;;;5.97;;
75386;SDS011;63966;47.914;22.266;2023-05-07T01:37:05;9.23;;;6.20;;
75386;SDS011;63966;47.914;22.266;2023-05-07T01:40:09;9.30;;;5.72;;
75386;SDS011;63966;47.914;22.266;2023-05-07T01:43:13;9.73;;;5.97;;
75386;SDS011;63966;47.914;22.266;2023-05-07T01:46:17;9.60;;;6.03;;
75386;SDS011;63966;47.914;22.266;2023-05-07T01:49:22;10.13;;;6.60;;
75386;SDS011;63966;47.914;22.266;2023-05-07T01:52:27;9.27;;;6.22;;
75386;SDS011;63966;47.914;22.266;2023-05-07T01:55:30;9.95;;;6.22;;
75386;SDS011;63966;47.914;22.266;2023-05-07T01:58:34;11.18;;;6.18;;
75386;SDS011;63966;47.914;22.266;2023-05-07T02:01:38;9.90;;;6.27;;
75386;SDS011;63966;47.914;22.266;2023-05-07T02:04:41;10.50;;;6.50;;
75386;SDS011;63966;47.914;22.266;2023-05-07T02:07:46;10.10;;;6.07;;
75386;SDS011;63966;47.914;22.266;2023-05-07T02:10:51;11.73;;;6.50;;
75386;SDS011;63966;47.914;22.266;2023-05-07T02:13:56;9.68;;;6.28;;
75386;SDS011;63966;47.914;22.266;2023-05-07T02:16:59;10.00;;;6.40;;
75386;SDS011;63966;47.914;22.266;2023-05-07T02:20:03;11.32;;;6.55;;
75386;SDS011;63966;47.914;22.266;2023-05-07T02:23:07;12.07;;;6.28;;
75386;SDS011;63966;47.914;22.266;2023-05-07T02:26:10;9.85;;;6.57;;
75386;SDS011;63966;47.914;22.266;2023-05-07T02:29:14;11.00;;;6.38;;
75386;SDS011;63966;47.914;22.266;2023-05-07T02:32:18;8.90;;;5.60;;
75386;SDS011;63966;47.914;22.266;2023-05-07T02:35:21;10.23;;;6.32;;
75386;SDS011;63966;47.914;22.266;2023-05-07T02:38:26;10.45;;;7.15;;
75386;SDS011;63966;47.914;22.266;2023-05-07T02:41:30;10.60;;;6.60;;
75386;SDS011;63966;47.914;22.266;2023-05-07T02:44:34;10.48;;;6.65;;
75386;SDS011;63966;47.914;22.266;2023-05-07T02:47:37;10.07;;;6.87;;
75386;SDS011;63966;47.914;22.266;2023-05-07T02:50:41;11.50;;;6.40;;
75386;SDS011;63966;47.914;22.266;2023-05-07T02:53:47;10.27;;;6.82;;
75386;SDS011;63966;47.914;22.266;2023-05-07T02:56:50;10.38;;;6.82;;
75386;SDS011;63966;47.914;22.266;2023-05-07T02:59:54;12.27;;;7.07;;
75386;SDS011;63966;47.914;22.266;2023-05-07T03:02:58;11.73;;;6.60;;
75386;SDS011;63966;47.914;22.266;2023-05-07T03:06:02;11.68;;;7.20;;
75386;SDS011;63966;47.914;22.266;2023-05-07T03:09:05;11.75;;;7.20;;
75386;SDS011;63966;47.914;22.266;2023-05-07T03:12:09;10.90;;;6.88;;
75386;SDS011;63966;47.914;22.266;2023-05-07T03:15:13;10.25;;;6.72;;
75386;SDS011;63966;47.914;22.266;2023-05-07T03:18:17;11.23;;;6.73;;
75386;SDS011;63966;47.914;22.266;2023-05-07T03:21:21;10.90;;;7.03;;
75386;SDS011;63966;47.914;22.266;2023-05-07T03:24:25;12.30;;;7.40;;
75386;SDS011;63966;47.914;22.266;2023-05-07T03:27:28;11.35;;;6.85;;
75386;SDS011;63966;47.914;22.266;2023-05-07T03:30:32;12.48;;;7.72;;
75386;SDS011;63966;47.914;22.266;2023-05-07T03:33:38;12.50;;;7.07;;
75386;SDS011;63966;47.914;22.266;2023-05-07T03:36:52;11.02;;;6.75;;
75386;SDS011;63966;47.914;22.266;2023-05-07T03:39:57;11.82;;;6.68;;
75386;SDS011;63966;47.914;22.266;2023-05-07T03:43:01;14.10;;;7.53;;
75386;SDS011;63966;47.914;22.266;2023-05-07T03:46:07;11.43;;;7.38;;
75386;SDS011;63966;47.914;22.266;2023-05-07T03:49:11;11.60;;;7.10;;
75386;SDS011;63966;47.914;22.266;2023-05-07T03:52:14;11.18;;;7.47;;
75386;SDS011;63966;47.914;22.266;2023-05-07T03:55:18;13.45;;;7.05;;
75386;SDS011;63966;47.914;22.266;2023-05-07T03:58:27;11.50;;;7.55;;
75386;SDS011;63966;47.914;22.266;2023-05-07T04:01:34;11.23;;;7.68;;
75386;SDS011;63966;47.914;22.266;2023-05-07T04:04:38;10.47;;;7.20;;
75386;SDS011;63966;47.914;22.266;2023-05-07T04:07:42;10.25;;;6.72;;
75386;SDS011;63966;47.914;22.266;2023-05-07T04:10:54;10.60;;;7.30;;
75386;SDS011;63966;47.914;22.266;2023-05-07T04:14:05;10.82;;;6.88;;
75386;SDS011;63966;47.914;22.266;2023-05-07T04:17:09;11.93;;;7.35;;
75386;SDS011;63966;47.914;22.266;2023-05-07T04:20:16;11.23;;;7.33;;
75386;SDS011;63966;47.914;22.266;2023-05-07T04:23:25;11.02;;;7.22;;
75386;SDS011;63966;47.914;22.266;2023-05-07T04:26:30;9.93;;;7.03;;
75386;SDS011;63966;47.914;22.266;2023-05-07T04:29:35;11.63;;;7.25;;
75386;SDS011;63966;47.914;22.266;2023-05-07T04:32:39;10.98;;;7.00;;
75386;SDS011;63966;47.914;22.266;2023-05-07T04:35:43;11.43;;;7.27;;
75386;SDS011;63966;47.914;22.266;2023-05-07T04:38:46;11.63;;;7.28;;
75386;SDS011;63966;47.914;22.266;2023-05-07T04:41:53;11.80;;;7.18;;
75386;SDS011;63966;47.914;22.266;2023-05-07T04:44:57;10.88;;;7.05;;
75386;SDS011;63966;47.914;22.266;2023-05-07T04:48:01;9.65;;;6.82;;
75386;SDS011;63966;47.914;22.266;2023-05-07T04:51:07;12.23;;;7.47;;
75386;SDS011;63966;47.914;22.266;2023-05-07T04:54:10;11.45;;;7.28;;
75386;SDS011;63966;47.914;22.266;2023-05-07T04:57:14;10.98;;;7.32;;
75386;SDS011;63966;47.914;22.266;2023-05-07T05:00:19;12.43;;;7.10;;
75386;SDS011;63966;47.914;22.266;2023-05-07T05:03:25;10.88;;;7.60;;
75386;SDS011;63966;47.914;22.266;2023-05-07T05:06:29;11.70;;;7.63;;
75386;SDS011;63966;47.914;22.266;2023-05-07T05:09:33;11.63;;;7.38;;
75386;SDS011;63966;47.914;22.266;2023-05-07T05:12:37;10.90;;;7.38;;
75386;SDS011;63966;47.914;22.266;2023-05-07T05:15:41;10.38;;;7.20;;
75386;SDS011;63966;47.914;22.266;2023-05-07T05:18:44;11.70;;;6.80;;
75386;SDS011;63966;47.914;22.266;2023-05-07T05:21:51;11.80;;;6.90;;
75386;SDS011;63966;47.914;22.266;2023-05-07T05:24:55;10.38;;;6.35;;
75386;SDS011;63966;47.914;22.266;2023-05-07T05:27:58;11.45;;;6.90;;
75386;SDS011;63966;47.914;22.266;2023-05-07T05:31:03;8.45;;;6.25;;
75386;SDS011;63966;47.914;22.266;2023-05-07T05:34:10;9.13;;;5.95;;
75386;SDS011;63966;47.914;22.266;2023-05-07T05:37:15;8.93;;;5.90;;
75386;SDS011;63966;47.914;22.266;2023-05-07T05:40:19;11.52;;;6.00;;
75386;SDS011;63966;47.914;22.266;2023-05-07T05:43:23;9.65;;;6.32;;
75386;SDS011;63966;47.914;22.266;2023-05-07T05:46:27;9.48;;;6.78;;
75386;SDS011;63966;47.914;22.266;2023-05-07T05:49:31;9.48;;;6.97;;
75386;SDS011;63966;47.914;22.266;2023-05-07T05:52:34;11.27;;;6.90;;
75386;SDS011;63966;47.914;22.266;2023-05-07T05:55:39;13.45;;;6.75;;
75386;SDS011;63966;47.914;22.266;2023-05-07T05:58:43;10.23;;;7.35;;
75386;SDS011;63966;47.914;22.266;2023-05-07T06:01:47;10.68;;;6.95;;
75386;SDS011;63966;47.914;22.266;2023-05-07T06:04:51;11.13;;;7.25;;
75386;SDS011;63966;47.914;22.266;2023-05-07T06:07:57;10.43;;;7.03;;
75386;SDS011;63966;47.914;22.266;2023-05-07T06:11:05;10.05;;;7.43;;
75386;SDS011;63966;47.914;22.266;2023-05-07T06:14:11;10.98;;;7.60;;
75386;SDS011;63966;47.914;22.266;2023-05-07T06:17:15;11.13;;;7.25;;
75386;SDS011;63966;47.914;22.266;2023-05-07T06:20:23;11.35;;;8.07;;
75386;SDS011;63966;47.914;22.266;2023-05-07T06:23:27;10.20;;;7.53;;
75386;SDS011;63966;47.914;22.266;2023-05-07T06:26:31;11.77;;;7.97;;
75386;SDS011;63966;47.914;22.266;2023-05-07T06:29:34;11.82;;;8.85;;
75386;SDS011;63966;47.914;22.266;2023-05-07T06:32:44;12.05;;;8.50;;
75386;SDS011;63966;47.914;22.266;2023-05-07T06:35:49;15.13;;;9.65;;
75386;SDS011;63966;47.914;22.266;2023-05-07T06:38:53;12.93;;;9.00;;
75386;SDS011;63966;47.914;22.266;2023-05-07T06:41:57;15.50;;;10.15;;
75386;SDS011;63966;47.914;22.266;2023-05-07T06:45:06;16.38;;;10.48;;
75386;SDS011;63966;47.914;22.266;2023-05-07T06:48:10;15.27;;;10.48;;
75386;SDS011;63966;47.914;22.266;2023-05-07T06:51:30;16.15;;;10.65;;
75386;SDS011;63966;47.914;22.266;2023-05-07T06:54:37;15.33;;;10.63;;
75386;SDS011;63966;47.914;22.266;2023-05-07T06:57:41;13.85;;;9.85;;
75386;SDS011;63966;47.914;22.266;2023-05-07T07:00:45;17.35;;;11.75;;
75386;SDS011;63966;47.914;22.266;2023-05-07T07:03:48;17.05;;;11.48;;
75386;SDS011;63966;47.914;22.266;2023-05-07T07:06:54;15.85;;;10.68;;
75386;SDS011;63966;47.914;22.266;2023-05-07T07:09:59;14.17;;;10.07;;
75386;SDS011;63966;47.914;22.266;2023-05-07T07:13:03;13.48;;;9.55;;
75386;SDS011;63966;47.914;22.266;2023-05-07T07:16:07;13.27;;;9.68;;
75386;SDS011;63966;47.914;22.266;2023-05-07T07:19:11;12.75;;;9.55;;
75386;SDS011;63966;47.914;22.266;2023-05-07T07:22:14;13.73;;;9.50;;
75386;SDS011;63966;47.914;22.266;2023-05-07T07:25:18;12.17;;;9.17;;
75386;SDS011;63966;47.914;22.266;2023-05-07T07:28:23;13.40;;;9.30;;
75386;SDS011;63966;47.914;22.266;2023-05-07T07:31:27;12.52;;;9.23;;
75386;SDS011;63966;47.914;22.266;2023-05-07T07:34:32;14.45;;;9.68;;
75386;SDS011;63966;47.914;22.266;2023-05-07T07:37:36;13.82;;;9.93;;
75386;SDS011;63966;47.914;22.266;2023-05-07T07:40:40;12.70;;;8.90;;
75386;SDS011;63966;47.914;22.266;2023-05-07T07:43:46;12.88;;;9.00;;
75386;SDS011;63966;47.914;22.266;2023-05-07T07:46:53;13.80;;;9.80;;
75386;SDS011;63966;47.914;22.266;2023-05-07T07:49:59;14.77;;;9.48;;
75386;SDS011;63966;47.914;22.266;2023-05-07T07:53:02;14.50;;;9.70;;
75386;SDS011;63966;47.914;22.266;2023-05-07T07:56:06;13.70;;;9.70;;
75386;SDS011;63966;47.914;22.266;2023-05-07T07:59:10;14.32;;;9.65;;
75386;SDS011;63966;47.914;22.266;2023-05-07T08:02:15;13.27;;;9.25;;
75386;SDS011;63966;47.914;22.266;2023-05-07T08:05:19;12.85;;;9.13;;
75386;SDS011;63966;47.914;22.266;2023-05-07T08:08:24;15.00;;;9.40;;
75386;SDS011;63966;47.914;22.266;2023-05-07T08:11:29;16.03;;;8.93;;
75386;SDS011;63966;47.914;22.266;2023-05-07T08:14:34;12.98;;;9.10;;
75386;SDS011;63966;47.914;22.266;2023-05-07T08:17:40;10.98;;;7.60;;
75386;SDS011;63966;47.914;22.266;2023-05-07T08:20:44;9.85;;;6.63;;
75386;SDS011;63966;47.914;22.266;2023-05-07T08:23:52;9.85;;;7.13;;
75386;SDS011;63966;47.914;22.266;2023-05-07T08:26:56;10.47;;;6.57;;
75386;SDS011;63966;47.914;22.266;2023-05-07T08:29:59;10.35;;;6.70;;
75386;SDS011;63966;47.914;22.266;2023-05-07T08:33:05;11.93;;;7.40;;
75386;SDS011;63966;47.914;22.266;2023-05-07T08:36:11;12.43;;;8.07;;
75386;SDS011;63966;47.914;22.266;2023-05-07T08:39:15;12.30;;;8.38;;
75386;SDS011;63966;47.914;22.266;2023-05-07T08:42:24;10.43;;;7.90;;
75386;SDS011;63966;47.914;22.266;2023-05-07T08:45:28;11.18;;;7.95;;
75386;SDS011;63966;47.914;22.266;2023-05-07T08:48:35;10.77;;;8.00;;
75386;SDS011;63966;47.914;22.266;2023-05-07T08:51:44;10.23;;;7.72;;
75386;SDS011;63966;47.914;22.266;2023-05-07T08:54:49;10.40;;;7.57;;
75386;SDS011;63966;47.914;22.266;2023-05-07T08:57:53;9.87;;;6.73;;
75386;SDS011;63966;47.914;22.266;2023-05-07T09:00:57;11.95;;;7.53;;
75386;SDS011;63966;47.914;22.266;2023-05-07T09:04:01;11.80;;;8.35;;
75386;SDS011;63966;47.914;22.266;2023-05-07T09:07:05;9.65;;;6.97;;
75386;SDS011;63966;47.914;22.266;2023-05-07T09:10:14;11.05;;;8.02;;
75386;SDS011;63966;47.914;22.266;2023-05-07T09:13:20;11.23;;;7.97;;
75386;SDS011;63966;47.914;22.266;2023-05-07T09:16:25;11.93;;;8.38;;
75386;SDS011;63966;47.914;22.266;2023-05-07T09:19:30;11.45;;;8.13;;
75386;SDS011;63966;47.914;22.266;2023-05-07T09:22:37;12.20;;;7.80;;
75386;SDS011;63966;47.914;22.266;2023-05-07T09:25:45;11.65;;;8.80;;
75386;SDS011;63966;47.914;22.266;2023-05-07T09:28:56;9.07;;;6.10;;
75386;SDS011;63966;47.914;22.266;2023-05-07T09:31:59;11.77;;;7.22;;
75386;SDS011;63966;47.914;22.266;2023-05-07T09:35:17;11.15;;;7.18;;
75386;SDS011;63966;47.914;22.266;2023-05-07T09:38:26;10.40;;;6.20;;
75386;SDS011;63966;47.914;22.266;2023-05-07T09:41:33;9.13;;;6.30;;
75386;SDS011;63966;47.914;22.266;2023-05-07T09:44:56;10.97;;;6.57;;
75386;SDS011;63966;47.914;22.266;2023-05-07T09:48:05;8.40;;;5.60;;
75386;SDS011;63966;47.914;22.266;2023-05-07T09:51:29;8.65;;;5.68;;
75386;SDS011;63966;47.914;22.266;2023-05-07T09:54:40;9.65;;;6.93;;
75386;SDS011;63966;47.914;22.266;2023-05-07T09:57:48;9.82;;;6.63;;
75386;SDS011;63966;47.914;22.266;2023-05-07T10:00:54;10.00;;;6.17;;
75386;SDS011;63966;47.914;22.266;2023-05-07T10:04:01;9.15;;;5.90;;
75386;SDS011;63966;47.914;22.266;2023-05-07T10:07:08;8.65;;;5.30;;
75386;SDS011;63966;47.914;22.266;2023-05-07T10:10:12;8.98;;;5.47;;
75386;SDS011;63966;47.914;22.266;2023-05-07T10:13:19;7.90;;;5.95;;
75386;SDS011;63966;47.914;22.266;2023-05-07T10:16:31;8.73;;;5.53;;
75386;SDS011;63966;47.914;22.266;2023-05-07T10:19:43;8.15;;;5.82;;
75386;SDS011;63966;47.914;22.266;2023-05-07T10:22:48;8.57;;;5.85;;
75386;SDS011;63966;47.914;22.266;2023-05-07T10:26:03;9.20;;;6.00;;
75386;SDS011;63966;47.914;22.266;2023-05-07T10:29:17;8.70;;;6.15;;
75386;SDS011;63966;47.914;22.266;2023-05-07T10:32:38;9.50;;;6.00;;
75386;SDS011;63966;47.914;22.266;2023-05-07T10:36:01;7.90;;;4.93;;
75386;SDS011;63966;47.914;22.266;2023-05-07T10:39:08;8.90;;;5.72;;
75386;SDS011;63966;47.914;22.266;2023-05-07T10:42:14;11.00;;;5.00;;
75386;SDS011;63966;47.914;22.266;2023-05-07T10:45:23;8.65;;;6.22;;
75386;SDS011;63966;47.914;22.266;2023-05-07T10:48:29;10.17;;;6.03;;
75386;SDS011;63966;47.914;22.266;2023-05-07T10:51:39;11.90;;;5.95;;
75386;SDS011;63966;47.914;22.266;2023-05-07T10:58:27;9.35;;;5.82;;
75386;SDS011;63966;47.914;22.266;2023-05-07T11:05:22;8.30;;;5.43;;
75386;SDS011;63966;47.914;22.266;2023-05-07T11:08:57;7.03;;;4.90;;
75386;SDS011;63966;47.914;22.266;2023-05-07T11:15:46;8.52;;;4.72;;
75386;SDS011;63966;47.914;22.266;2023-05-07T11:18:57;9.60;;;5.00;;
75386;SDS011;63966;47.914;22.266;2023-05-07T11:22:24;8.07;;;4.53;;
75386;SDS011;63966;47.914;22.266;2023-05-07T11:25:49;7.95;;;4.60;;
75386;SDS011;63966;47.914;22.266;2023-05-07T11:28:57;7.32;;;4.57;;
75386;SDS011;63966;47.914;22.266;2023-05-07T11:32:02;8.25;;;4.60;;
75386;SDS011;63966;47.914;22.266;2023-05-07T11:35:15;7.50;;;4.60;;
75386;SDS011;63966;47.914;22.266;2023-05-07T11:38:22;7.60;;;4.47;;
75386;SDS011;63966;47.914;22.266;2023-05-07T11:41:33;7.70;;;4.40;;
75386;SDS011;63966;47.914;22.266;2023-05-07T11:44:44;6.30;;;4.30;;
75386;SDS011;63966;47.914;22.266;2023-05-07T11:47:49;6.95;;;4.72;;
75386;SDS011;63966;47.914;22.266;2023-05-07T11:50:54;7.70;;;4.80;;
75386;SDS011;63966;47.914;22.266;2023-05-07T11:54:04;7.30;;;4.37;;
75386;SDS011;63966;47.914;22.266;2023-05-07T11:57:14;7.07;;;4.57;;
75386;SDS011;63966;47.914;22.266;2023-05-07T12:00:18;7.30;;;4.50;;
75386;SDS011;63966;47.914;22.266;2023-05-07T12:03:21;7.10;;;4.40;;
75386;SDS011;63966;47.914;22.266;2023-05-07T12:06:25;8.73;;;4.70;;
75386;SDS011;63966;47.914;22.266;2023-05-07T12:09:29;8.53;;;4.30;;
75386;SDS011;63966;47.914;22.266;2023-05-07T12:12:38;7.78;;;4.40;;
75386;SDS011;63966;47.914;22.266;2023-05-07T12:15:44;6.10;;;4.00;;
75386;SDS011;63966;47.914;22.266;2023-05-07T12:18:48;7.25;;;4.35;;
75386;SDS011;63966;47.914;22.266;2023-05-07T12:21:52;7.60;;;4.63;;
75386;SDS011;63966;47.914;22.266;2023-05-07T12:24:58;7.13;;;3.93;;
75386;SDS011;63966;47.914;22.266;2023-05-07T12:28:02;7.60;;;4.35;;
75386;SDS011;63966;47.914;22.266;2023-05-07T12:31:07;7.18;;;4.50;;
75386;SDS011;63966;47.914;22.266;2023-05-07T12:34:11;8.20;;;4.60;;
75386;SDS011;63966;47.914;22.266;2023-05-07T12:37:14;7.43;;;4.97;;
75386;SDS011;63966;47.914;22.266;2023-05-07T12:40:18;8.07;;;4.77;;
75386;SDS011;63966;47.914;22.266;2023-05-07T12:43:24;6.15;;;3.60;;
75386;SDS011;63966;47.914;22.266;2023-05-07T12:46:29;6.32;;;4.00;;
75386;SDS011;63966;47.914;22.266;2023-05-07T12:49:34;8.07;;;4.50;;
75386;SDS011;63966;47.914;22.266;2023-05-07T12:52:40;9.48;;;5.28;;
75386;SDS011;63966;47.914;22.266;2023-05-07T12:55:50;7.87;;;4.87;;
75386;SDS011;63966;47.914;22.266;2023-05-07T12:58:57;7.20;;;4.68;;
75386;SDS011;63966;47.914;22.266;2023-05-07T13:02:01;7.53;;;4.57;;
75386;SDS011;63966;47.914;22.266;2023-05-07T13:05:04;7.35;;;4.55;;
75386;SDS011;63966;47.914;22.266;2023-05-07T13:08:08;8.00;;;4.63;;
75386;SDS011;63966;47.914;22.266;2023-05-07T13:11:12;6.90;;;4.20;;
75386;SDS011;63966;47.914;22.266;2023-05-07T13:14:16;6.38;;;4.07;;
75386;SDS011;63966;47.914;22.266;2023-05-07T13:17:19;7.28;;;4.30;;
75386;SDS011;63966;47.914;22.266;2023-05-07T13:20:23;7.43;;;4.10;;
75386;SDS011;63966;47.914;22.266;2023-05-07T13:23:27;6.80;;;4.43;;
75386;SDS011;63966;47.914;22.266;2023-05-07T13:26:31;7.63;;;4.00;;
75386;SDS011;63966;47.914;22.266;2023-05-07T13:29:34;6.72;;;3.72;;
75386;SDS011;63966;47.914;22.266;2023-05-07T13:32:38;7.35;;;4.22;;
75386;SDS011;63966;47.914;22.266;2023-05-07T13:35:42;7.30;;;4.28;;
75386;SDS011;63966;47.914;22.266;2023-05-07T13:38:45;6.57;;;4.30;;
75386;SDS011;63966;47.914;22.266;2023-05-07T13:41:49;6.50;;;4.10;;
75386;SDS011;63966;47.914;22.266;2023-05-07T13:44:52;7.82;;;4.45;;
75386;SDS011;63966;47.914;22.266;2023-05-07T13:47:56;8.55;;;4.50;;
75386;SDS011;63966;47.914;22.266;2023-05-07T13:51:00;8.20;;;4.40;;
75386;SDS011;63966;47.914;22.266;2023-05-07T13:54:04;7.28;;;4.53;;
75386;SDS011;63966;47.914;22.266;2023-05-07T13:57:07;8.10;;;4.80;;
75386;SDS011;63966;47.914;22.266;2023-05-07T14:00:11;9.15;;;5.50;;
75386;SDS011;63966;47.914;22.266;2023-05-07T14:03:18;8.25;;;5.45;;
75386;SDS011;63966;47.914;22.266;2023-05-07T14:06:22;7.55;;;4.88;;
75386;SDS011;63966;47.914;22.266;2023-05-07T14:09:26;8.70;;;4.70;;
75386;SDS011;63966;47.914;22.266;2023-05-07T14:12:29;9.37;;;5.03;;
75386;SDS011;63966;47.914;22.266;2023-05-07T14:15:33;8.23;;;4.78;;
75386;SDS011;63966;47.914;22.266;2023-05-07T14:18:37;8.25;;;5.05;;
75386;SDS011;63966;47.914;22.266;2023-05-07T14:21:41;7.32;;;4.40;;
75386;SDS011;63966;47.914;22.266;2023-05-07T14:24:44;8.85;;;4.47;;
75386;SDS011;63966;47.914;22.266;2023-05-07T14:28:00;7.97;;;4.73;;
75386;SDS011;63966;47.914;22.266;2023-05-07T14:31:04;8.60;;;5.10;;
75386;SDS011;63966;47.914;22.266;2023-05-07T14:34:08;8.10;;;4.32;;
75386;SDS011;63966;47.914;22.266;2023-05-07T14:37:12;7.88;;;4.30;;
75386;SDS011;63966;47.914;22.266;2023-05-07T14:40:16;8.60;;;5.22;;
75386;SDS011;63966;47.914;22.266;2023-05-07T14:43:19;7.03;;;4.30;;
75386;SDS011;63966;47.914;22.266;2023-05-07T14:46:24;7.68;;;3.90;;
75386;SDS011;63966;47.914;22.266;2023-05-07T14:49:28;8.70;;;3.75;;
75386;SDS011;63966;47.914;22.266;2023-05-07T14:52:32;7.05;;;3.90;;
75386;SDS011;63966;47.914;22.266;2023-05-07T14:55:35;6.80;;;4.07;;
75386;SDS011;63966;47.914;22.266;2023-05-07T14:58:39;6.60;;;3.50;;
75386;SDS011;63966;47.914;22.266;2023-05-07T15:01:43;8.82;;;3.58;;
75386;SDS011;63966;47.914;22.266;2023-05-07T15:04:48;8.68;;;3.53;;
75386;SDS011;63966;47.914;22.266;2023-05-07T15:07:51;6.35;;;3.10;;
75386;SDS011;63966;47.914;22.266;2023-05-07T15:10:58;6.28;;;3.08;;
75386;SDS011;63966;47.914;22.266;2023-05-07T15:14:02;5.57;;;3.10;;
75386;SDS011;63966;47.914;22.266;2023-05-07T15:17:06;6.28;;;3.00;;
75386;SDS011;63966;47.914;22.266;2023-05-07T15:20:09;5.88;;;2.90;;
75386;SDS011;63966;47.914;22.266;2023-05-07T15:23:13;5.63;;;2.92;;
75386;SDS011;63966;47.914;22.266;2023-05-07T15:26:20;7.00;;;3.10;;
75386;SDS011;63966;47.914;22.266;2023-05-07T15:29:24;6.57;;;2.60;;
75386;SDS011;63966;47.914;22.266;2023-05-07T15:32:28;6.35;;;2.40;;
75386;SDS011;63966;47.914;22.266;2023-05-07T15:35:32;6.15;;;2.50;;
75386;SDS011;63966;47.914;22.266;2023-05-07T15:38:35;6.25;;;2.20;;
75386;SDS011;63966;47.914;22.266;2023-05-07T15:41:39;5.05;;;2.50;;
75386;SDS011;63966;47.914;22.266;2023-05-07T15:44:43;4.03;;;2.10;;
75386;SDS011;63966;47.914;22.266;2023-05-07T15:47:46;5.65;;;2.45;;
75386;SDS011;63966;47.914;22.266;2023-05-07T15:50:50;5.35;;;2.30;;
75386;SDS011;63966;47.914;22.266;2023-05-07T15:53:54;4.70;;;2.33;;
75386;SDS011;63966;47.914;22.266;2023-05-07T15:56:57;4.40;;;2.20;;
75386;SDS011;63966;47.914;22.266;2023-05-07T16:00:02;5.63;;;2.10;;
75386;SDS011;63966;47.914;22.266;2023-05-07T16:03:13;5.35;;;2.20;;
75386;SDS011;63966;47.914;22.266;2023-05-07T16:06:17;3.65;;;2.08;;
75386;SDS011;63966;47.914;22.266;2023-05-07T16:09:20;4.40;;;2.17;;
75386;SDS011;63966;47.914;22.266;2023-05-07T16:12:26;4.03;;;2.10;;
75386;SDS011;63966;47.914;22.266;2023-05-07T16:15:29;4.60;;;1.90;;
75386;SDS011;63966;47.914;22.266;2023-05-07T16:18:33;4.45;;;2.17;;
75386;SDS011;63966;47.914;22.266;2023-05-07T16:21:39;4.90;;;2.55;;
75386;SDS011;63966;47.914;22.266;2023-05-07T16:24:43;6.20;;;2.15;;
75386;SDS011;63966;47.914;22.266;2023-05-07T16:27:47;5.80;;;2.35;;
75386;SDS011;63966;47.914;22.266;2023-05-07T16:30:51;3.80;;;2.10;;
75386;SDS011;63966;47.914;22.266;2023-05-07T16:33:54;4.03;;;2.00;;
75386;SDS011;63966;47.914;22.266;2023-05-07T16:36:58;5.60;;;2.17;;
75386;SDS011;63966;47.914;22.266;2023-05-07T16:40:02;5.15;;;2.20;;
75386;SDS011;63966;47.914;22.266;2023-05-07T16:43:08;6.50;;;2.40;;
75386;SDS011;63966;47.914;22.266;2023-05-07T16:46:13;4.17;;;1.90;;
75386;SDS011;63966;47.914;22.266;2023-05-07T16:49:21;4.65;;;2.10;;
75386;SDS011;63966;47.914;22.266;2023-05-07T16:52:25;5.90;;;2.28;;
75386;SDS011;63966;47.914;22.266;2023-05-07T16:55:31;4.20;;;2.00;;
75386;SDS011;63966;47.914;22.266;2023-05-07T16:58:40;4.80;;;2.20;;
75386;SDS011;63966;47.914;22.266;2023-05-07T17:01:43;5.83;;;2.37;;
75386;SDS011;63966;47.914;22.266;2023-05-07T17:04:47;4.72;;;2.08;;
75386;SDS011;63966;47.914;22.266;2023-05-07T17:07:51;5.43;;;2.38;;
75386;SDS011;63966;47.914;22.266;2023-05-07T17:10:55;5.00;;;2.28;;
75386;SDS011;63966;47.914;22.266;2023-05-07T17:13:58;9.18;;;4.18;;
75386;SDS011;63966;47.914;22.266;2023-05-07T17:17:04;7.47;;;2.53;;
75386;SDS011;63966;47.914;22.266;2023-05-07T17:20:08;6.38;;;2.75;;
75386;SDS011;63966;47.914;22.266;2023-05-07T17:23:12;6.40;;;2.60;;
75386;SDS011;63966;47.914;22.266;2023-05-07T17:26:16;5.53;;;2.22;;
75386;SDS011;63966;47.914;22.266;2023-05-07T17:29:20;6.95;;;3.28;;
75386;SDS011;63966;47.914;22.266;2023-05-07T17:32:23;7.00;;;3.00;;
75386;SDS011;63966;47.914;22.266;2023-05-07T17:35:27;6.60;;;2.92;;
75386;SDS011;63966;47.914;22.266;2023-05-07T17:38:33;9.30;;;3.13;;
75386;SDS011;63966;47.914;22.266;2023-05-07T17:41:37;5.88;;;2.95;;
75386;SDS011;63966;47.914;22.266;2023-05-07T17:44:41;6.13;;;3.00;;
75386;SDS011;63966;47.914;22.266;2023-05-07T17:47:44;7.93;;;2.80;;
75386;SDS011;63966;47.914;22.266;2023-05-07T17:50:48;7.60;;;2.92;;
75386;SDS011;63966;47.914;22.266;2023-05-07T17:53:51;8.18;;;3.08;;
75386;SDS011;63966;47.914;22.266;2023-05-07T17:56:55;7.97;;;2.80;;
75386;SDS011;63966;47.914;22.266;2023-05-07T17:59:58;7.22;;;3.00;;
75386;SDS011;63966;47.914;22.266;2023-05-07T18:03:06;7.73;;;2.80;;
75386;SDS011;63966;47.914;22.266;2023-05-07T18:06:10;7.00;;;2.97;;
75386;SDS011;63966;47.914;22.266;2023-05-07T18:09:19;7.07;;;3.35;;
75386;SDS011;63966;47.914;22.266;2023-05-07T18:12:22;6.53;;;3.20;;
75386;SDS011;63966;47.914;22.266;2023-05-07T18:15:28;9.90;;;3.45;;
75386;SDS011;63966;47.914;22.266;2023-05-07T18:18:32;9.33;;;4.00;;
75386;SDS011;63966;47.914;22.266;2023-05-07T18:21:37;7.38;;;2.92;;
75386;SDS011;63966;47.914;22.266;2023-05-07T18:24:40;6.88;;;3.65;;